createdAt,value
2019-01-10T00:00:53.483Z,1.45
2019-01-10T00:03:42.225Z,2.25
2019-01-10T00:06:30.865Z,1.75
2019-01-10T00:09:19.241Z,4.60
2019-01-10T00:12:07.853Z,1.55
2019-01-10T00:14:56.207Z,3.70
2019-01-10T00:17:45.329Z,6.30
2019-01-10T00:20:33.745Z,1.47
2019-01-10T00:23:23.026Z,2.58
2019-01-10T00:26:11.618Z,1.65
2019-01-10T00:29:00.636Z,1.50
2019-01-10T00:31:49.384Z,1.45
2019-01-10T00:34:37.713Z,2.10
2019-01-10T00:37:26.290Z,7.17
2019-01-10T00:40:18.877Z,1.90
2019-01-10T00:43:07.675Z,2.00
2019-01-10T11:34:36.520Z,12.03
2019-01-10T11:40:54.741Z,9.65
2019-01-10T11:44:04.230Z,19.55
2019-01-10T11:59:11.707Z,8.65
2019-01-10T12:02:12.083Z,10.60
2019-01-10T12:11:25.074Z,12.10
2019-01-10T12:17:36.206Z,11.75
2019-01-10T12:20:45.594Z,8.63
2019-01-10T12:23:46.029Z,12.55
2019-01-10T12:26:55.388Z,5.40
2019-01-10T12:29:57.661Z,7.10
2019-01-10T12:33:07.140Z,10.03
2019-01-10T12:45:15.742Z,4.70
2019-01-10T12:51:31.726Z,8.85
2019-01-10T13:15:43.073Z,7.20
2019-01-10T13:18:52.784Z,4.95
2019-01-10T13:21:54.911Z,7.30
2019-01-10T13:28:33.423Z,8.58
2019-01-10T13:31:23.468Z,5.53
2019-01-10T13:34:32.973Z,5.10
2019-01-10T13:40:50.309Z,8.73
2019-01-10T13:47:07.444Z,9.53
2019-01-10T13:50:37.842Z,6.05
2019-01-10T13:53:39.882Z,6.87
2019-01-10T13:56:49.269Z,9.80
2019-01-10T13:59:49.645Z,3.37
2019-01-10T14:06:06.554Z,5.92
2019-01-10T14:12:23.294Z,8.73
2019-01-10T14:15:33.041Z,9.83
2019-01-10T14:18:34.987Z,7.92
2019-01-10T14:21:46.752Z,4.03
2019-01-10T14:24:46.426Z,4.85
2019-01-10T14:27:59.562Z,7.87
2019-01-10T14:31:00.069Z,7.92
2019-01-10T14:34:14.137Z,7.87
2019-01-10T14:37:13.658Z,6.33
2019-01-10T14:43:39.248Z,7.53
2019-01-10T14:46:41.228Z,5.87
2019-01-10T14:49:50.615Z,11.50
2019-01-10T14:52:53.311Z,14.98
2019-01-10T14:55:55.474Z,10.20
2019-01-10T14:58:57.347Z,9.13
2019-01-10T15:01:59.892Z,9.63
2019-01-10T15:05:09.637Z,12.60
2019-01-10T15:08:12.139Z,11.12
2019-01-10T15:11:21.533Z,10.85
2019-01-10T15:14:23.758Z,11.73
2019-01-10T15:17:33.149Z,11.00
2019-01-10T15:20:33.563Z,10.55
2019-01-10T15:23:42.951Z,14.75
2019-01-10T15:26:45.276Z,15.00
2019-01-10T15:33:01.807Z,6.92
2019-01-10T15:36:11.291Z,8.10
2019-01-10T15:39:13.322Z,6.70
2019-01-10T15:42:16.171Z,11.85
2019-01-10T15:45:25.730Z,7.35
2019-01-10T15:48:28.474Z,12.47
2019-01-10T15:54:33.738Z,9.35
2019-01-10T16:00:50.991Z,13.08
2019-01-10T16:07:15.599Z,11.78
2019-01-10T16:10:17.964Z,11.20
2019-01-10T16:16:34.815Z,8.50
2019-01-10T16:22:50.341Z,10.80
2019-01-10T16:25:59.836Z,11.10
2019-01-10T16:29:02.459Z,9.35
2019-01-10T16:32:02.864Z,9.43
2019-01-10T16:38:19.962Z,12.05
2019-01-10T16:44:36.912Z,12.40
2019-01-10T16:50:54.083Z,5.75
2019-01-10T16:54:03.479Z,9.60
2019-01-10T16:57:05.486Z,7.67
2019-01-10T17:00:34.219Z,6.70
2019-01-10T17:03:36.336Z,12.82
2019-01-10T17:06:45.842Z,9.28
2019-01-10T17:09:46.097Z,7.90
2019-01-10T17:12:48.081Z,11.00
2019-01-10T17:15:57.485Z,9.08
2019-01-10T17:19:00.204Z,9.70
2019-01-10T17:25:24.755Z,12.35
2019-01-10T17:28:27.082Z,11.50
2019-01-10T17:34:44.643Z,12.33
2019-01-10T17:37:54.147Z,7.67
2019-01-10T17:40:56.682Z,14.95
2019-01-10T17:43:59.362Z,8.65
2019-01-10T17:47:08.870Z,7.83
2019-01-10T17:50:15.506Z,10.75
2019-01-10T17:53:15.891Z,9.93
2019-01-10T17:56:17.926Z,8.90
2019-01-10T17:59:18.315Z,8.40
2019-01-10T18:02:27.824Z,12.70
2019-01-10T18:05:30.040Z,10.40
2019-01-10T18:08:31.907Z,17.73
2019-01-10T18:11:41.303Z,6.87
2019-01-10T18:14:44.090Z,10.28
2019-01-10T18:21:02.128Z,8.50
2019-01-10T18:43:01.814Z,7.40
2019-01-10T18:46:11.213Z,11.65
2019-01-10T18:49:13.882Z,9.85
2019-01-10T18:52:23.291Z,11.50
2019-01-10T18:55:25.305Z,6.90
2019-01-10T19:01:42.190Z,9.20
2019-01-10T19:07:59.317Z,6.95
2019-01-10T19:11:08.705Z,7.62
2019-01-10T19:14:09.144Z,12.33
2019-01-10T19:17:18.545Z,12.07
2019-01-10T19:20:21.763Z,7.10
2019-01-10T19:26:39.443Z,9.40
2019-01-10T19:32:56.583Z,7.87
2019-01-10T19:36:06.147Z,10.43
2019-01-10T19:42:23.742Z,7.50
2019-01-10T19:45:33.198Z,8.20
2019-01-10T19:48:35.554Z,7.70
2019-01-10T19:51:45.008Z,10.85
2019-01-10T19:54:47.613Z,8.35
2019-01-10T19:57:50.061Z,6.65
2019-01-10T20:00:50.801Z,6.95
2019-01-10T20:07:08.045Z,6.35
2019-01-10T20:10:29.157Z,6.97
2019-01-10T20:16:46.933Z,6.03
2019-01-10T20:23:04.847Z,4.87
2019-01-10T20:29:22.935Z,6.47
2019-01-10T20:32:32.327Z,6.75
2019-01-10T20:35:32.806Z,8.38
2019-01-10T20:42:03.966Z,10.45
2019-01-10T20:45:24.905Z,8.55
2019-01-10T20:48:34.316Z,9.43
2019-01-10T20:51:36.942Z,7.75
2019-01-10T20:57:54.936Z,8.25
2019-01-10T21:04:19.372Z,8.45
2019-01-10T21:07:22.409Z,13.53
2019-01-10T21:13:52.598Z,11.10
2019-01-10T21:17:01.998Z,12.28
2019-01-10T21:20:22.840Z,12.70
2019-01-10T21:23:32.320Z,11.28
2019-01-10T21:26:35.047Z,11.90
2019-01-10T21:29:44.483Z,12.45
2019-01-10T21:32:47.975Z,13.60
2019-01-10T21:39:05.594Z,11.20
2019-01-10T21:45:23.792Z,12.47
2019-01-10T21:48:35.183Z,13.08
2019-01-10T21:51:37.375Z,11.25
2019-01-10T21:54:46.790Z,12.25
2019-01-10T21:57:48.746Z,11.68
2019-01-10T22:00:58.257Z,13.62
2019-01-10T22:04:00.367Z,13.18
2019-01-10T22:07:03.010Z,11.93
2019-01-10T22:10:13.150Z,13.22
2019-01-10T22:13:15.085Z,12.90
2019-01-10T22:16:24.599Z,13.05
2019-01-10T22:19:27.172Z,13.78
2019-01-10T22:22:27.675Z,13.32
2019-01-10T22:25:37.059Z,15.68
2019-01-10T22:28:39.162Z,19.27
2019-01-10T22:31:48.659Z,18.98
2019-01-10T22:34:51.150Z,21.20
2019-01-10T22:37:53.887Z,17.25
2019-01-10T22:41:03.266Z,19.55
2019-01-10T22:44:05.457Z,19.37
2019-01-10T22:47:14.943Z,20.32
2019-01-10T22:50:17.884Z,20.55
2019-01-10T22:53:19.921Z,20.43
2019-01-10T22:56:20.330Z,23.55
2019-01-10T22:59:22.814Z,23.62
2019-01-10T23:02:32.010Z,25.85
2019-01-10T23:05:35.491Z,24.60
2019-01-10T23:08:43.966Z,22.07
2019-01-10T23:11:53.372Z,24.40
2019-01-10T23:14:55.826Z,24.98
2019-01-10T23:18:26.134Z,22.17
2019-01-10T23:21:28.507Z,20.52
2019-01-10T23:24:37.997Z,27.85
2019-01-10T23:27:42.109Z,22.98
2019-01-10T23:30:48.743Z,25.70
2019-01-10T23:33:38.786Z,23.55
2019-01-10T23:36:39.349Z,25.55
2019-01-10T23:39:48.891Z,24.55
2019-01-10T23:42:50.941Z,24.15
2019-01-10T23:45:52.986Z,25.75
2019-01-10T23:49:02.384Z,24.30
2019-01-10T23:52:04.704Z,26.55
2019-01-10T23:55:14.178Z,27.67
2019-01-10T23:58:16.499Z,29.18
